Time;durP1;ratioP1;P1;durP2;ratioP2;P2;SDS_P1;SDS_P2;PMS_P1;PMS_P2;Temp;Humidity;BMP_temperature;BMP_pressure;BME280_temperature;BME280_humidity;BME280_pressure;Samples;Min_cycle;Max_cycle;Signal;HPM_P1;HPM_P2
2022/10/31 00:01:38;;;;;;;9.23;4.18;;;28.40;93.70;;;;;;4948188;29;20083;-50
2022/10/31 00:04:06;;;;;;;7.28;3.38;;;28.30;93.60;;;;;;4945717;29;20096;-48
2022/10/31 00:06:33;;;;;;;9.50;3.28;;;28.30;93.70;;;;;;4948525;29;20052;-49
2022/10/31 00:09:02;;;;;;;7.10;3.38;;;28.30;93.70;;;;;;4948136;29;20136;-54
2022/10/31 00:11:28;;;;;;;5.50;3.50;;;28.30;93.70;;;;;;4948730;29;20032;-48
2022/10/31 00:13:56;;;;;;;7.72;3.75;;;28.30;93.70;;;;;;4947957;29;20035;-44
2022/10/31 00:16:25;;;;;;;5.72;2.92;;;28.30;93.60;;;;;;4948798;29;20156;-51
2022/10/31 00:18:54;;;;;;;5.15;2.85;;;28.30;93.50;;;;;;4947957;29;20035;-53
2022/10/31 00:21:23;;;;;;;4.32;2.80;;;28.30;93.50;;;;;;4948169;29;20113;-44
2022/10/31 00:23:50;;;;;;;7.13;2.97;;;28.30;93.50;;;;;;4947850;29;20054;-52
2022/10/31 00:26:16;;;;;;;8.35;2.92;;;28.30;93.50;;;;;;4948419;29;20027;-51
2022/10/31 00:28:43;;;;;;;8.75;2.90;;;28.30;93.60;;;;;;4947987;29;20027;-46
2022/10/31 00:31:11;;;;;;;5.03;3.10;;;28.30;93.50;;;;;;4948279;29;20027;-45
2022/10/31 00:33:39;;;;;;;3.75;2.67;;;28.30;93.60;;;;;;4947311;29;20026;-48
2022/10/31 00:36:08;;;;;;;6.88;3.25;;;28.30;93.60;;;;;;4947925;29;20028;-47
2022/10/31 00:38:34;;;;;;;8.80;3.40;;;28.30;93.60;;;;;;4947633;29;20032;-45
2022/10/31 00:41:01;;;;;;;6.60;3.60;;;28.20;93.70;;;;;;4947992;29;20019;-46
2022/10/31 00:43:27;;;;;;;9.80;5.03;;;28.20;93.60;;;;;;4947572;29;20099;-48
2022/10/31 00:45:54;;;;;;;8.57;4.30;;;28.20;93.60;;;;;;4947922;29;20068;-45
2022/10/31 00:48:20;;;;;;;7.70;4.68;;;28.20;93.70;;;;;;4947377;29;20083;-45
2022/10/31 00:50:47;;;;;;;8.75;4.22;;;28.20;93.80;;;;;;4947473;29;20033;-45
2022/10/31 00:53:15;;;;;;;9.63;4.32;;;28.20;93.70;;;;;;4947293;29;20382;-44
2022/10/31 00:55:41;;;;;;;8.15;3.78;;;28.20;93.70;;;;;;4947407;29;20031;-51
2022/10/31 00:58:08;;;;;;;8.95;3.92;;;28.20;93.80;;;;;;4947282;29;20140;-47
2022/10/31 01:00:34;;;;;;;4.70;3.55;;;28.20;93.70;;;;;;4946814;29;20038;-53
2022/10/31 01:03:01;;;;;;;6.15;3.70;;;28.20;93.70;;;;;;4947619;29;20031;-45
2022/10/31 01:05:28;;;;;;;7.78;3.42;;;28.20;93.70;;;;;;4947524;29;20020;-50
2022/10/31 01:07:54;;;;;;;7.90;3.58;;;28.10;93.70;;;;;;4947531;29;20044;-50
2022/10/31 01:10:21;;;;;;;4.50;3.38;;;28.20;93.80;;;;;;4947756;29;20035;-48
2022/10/31 01:12:48;;;;;;;49.35;7.05;;;28.10;93.80;;;;;;4947280;29;20031;-45
2022/10/31 01:15:22;;;;;;;21.38;4.32;;;28.10;93.80;;;;;;4947648;29;20091;-44
2022/10/31 01:17:49;;;;;;;15.15;3.75;;;28.10;93.90;;;;;;4947030;29;20035;-50
2022/10/31 01:20:18;;;;;;;11.48;3.90;;;28.10;93.90;;;;;;4947159;29;20099;-44
2022/10/31 01:22:45;;;;;;;13.82;3.65;;;28.10;93.90;;;;;;4946938;29;20035;-45
2022/10/31 01:25:12;;;;;;;6.40;2.95;;;28.10;93.90;;;;;;4947216;29;20027;-49
2022/10/31 01:27:38;;;;;;;9.68;3.50;;;28.10;93.90;;;;;;4946531;29;20024;-46
2022/10/31 01:30:06;;;;;;;5.25;3.60;;;28.10;93.90;;;;;;4946982;29;20035;-46
2022/10/31 01:32:32;;;;;;;7.70;3.13;;;28.00;93.80;;;;;;4946945;29;20079;-44
2022/10/31 01:34:59;;;;;;;7.15;3.03;;;28.00;93.80;;;;;;4947060;29;20012;-44
2022/10/31 01:37:26;;;;;;;5.45;2.60;;;28.00;93.80;;;;;;4947074;29;20063;-46
2022/10/31 01:39:52;;;;;;;5.40;2.67;;;28.00;93.80;;;;;;4946754;29;20067;-44
2022/10/31 01:42:21;;;;;;;5.82;2.90;;;28.00;93.80;;;;;;4946797;29;20038;-47
2022/10/31 01:44:58;;;;;;;8.02;2.80;;;28.00;93.80;;;;;;4946786;29;20034;-47
2022/10/31 01:47:42;;;;;;;5.50;2.83;;;28.00;93.80;;;;;;4946385;29;20220;-44
2022/10/31 01:50:26;;;;;;;6.55;3.05;;;28.00;93.70;;;;;;4946645;29;20075;-49
2022/10/31 01:52:55;;;;;;;3.90;2.70;;;28.00;93.70;;;;;;4946879;29;20066;-47
2022/10/31 01:55:30;;;;;;;5.00;2.83;;;28.00;93.70;;;;;;4946980;29;20032;-45
2022/10/31 01:58:04;;;;;;;4.70;2.75;;;28.00;93.70;;;;;;4946790;29;20253;-45
2022/10/31 02:00:31;;;;;;;6.13;3.10;;;28.00;93.80;;;;;;4947169;29;20027;-44
2022/10/31 02:02:59;;;;;;;3.30;2.88;;;28.00;93.80;;;;;;4946294;29;20095;-49
2022/10/31 02:05:29;;;;;;;4.57;2.60;;;28.00;93.80;;;;;;4946658;29;20039;-47
2022/10/31 02:08:09;;;;;;;5.22;3.15;;;28.00;93.80;;;;;;4946347;29;20109;-47
2022/10/31 02:10:37;;;;;;;5.45;2.78;;;28.00;93.80;;;;;;4946838;29;20249;-46
2022/10/31 02:13:07;;;;;;;6.78;4.10;;;28.00;93.80;;;;;;4949978;29;20066;-50
2022/10/31 02:15:36;;;;;;;14.50;10.35;;;28.00;93.90;;;;;;4950508;29;20031;-47
2022/10/31 02:18:03;;;;;;;12.52;9.45;;;28.00;94.00;;;;;;4950407;29;20032;-46
2022/10/31 02:20:53;;;;;;;11.75;8.05;;;28.00;94.00;;;;;;4932971;29;20177;-46
2022/10/31 02:23:44;;;;;;;14.50;6.25;;;28.00;94.10;;;;;;4939586;29;20062;-48
2022/10/31 02:26:20;;;;;;;8.02;4.35;;;28.00;94.10;;;;;;4950109;29;20038;-44
2022/10/31 02:29:15;;;;;;;15.00;4.15;;;28.00;94.10;;;;;;4949581;29;20098;-44
2022/10/31 02:31:45;;;;;;;7.53;4.00;;;28.00;94.10;;;;;;4949843;29;20035;-46
2022/10/31 02:34:34;;;;;;;5.97;3.85;;;28.00;94.10;;;;;;4949497;29;20042;-44
2022/10/31 02:37:19;;;;;;;5.75;3.40;;;27.90;94.10;;;;;;4949696;29;20038;-44
2022/10/31 02:40:04;;;;;;;5.78;3.40;;;28.00;94.10;;;;;;4950092;29;20043;-44
2022/10/31 02:43:08;;;;;;;9.40;3.55;;;28.00;94.10;;;;;;4950103;29;20035;-44
2022/10/31 02:46:11;;;;;;;7.13;3.13;;;28.00;94.10;;;;;;4950182;29;20038;-43
2022/10/31 02:48:41;;;;;;;7.25;3.42;;;28.00;94.20;;;;;;4919241;29;20150;-47
2022/10/31 02:51:10;;;;;;;7.97;3.25;;;28.00;94.30;;;;;;4950083;29;20038;-44
2022/10/31 02:53:37;;;;;;;9.63;3.65;;;27.90;94.20;;;;;;4949421;29;20111;-45
2022/10/31 02:56:16;;;;;;;6.65;3.35;;;27.90;94.20;;;;;;4949707;29;20032;-44
2022/10/31 02:58:54;;;;;;;5.32;3.20;;;27.90;94.30;;;;;;4949812;29;20052;-44
2022/10/31 03:02:00;;;;;;;10.95;3.65;;;27.90;94.40;;;;;;4957398;29;20035;-46
2022/10/31 03:04:31;;;;;;;9.15;3.65;;;27.90;94.30;;;;;;4929693;29;20028;-44
2022/10/31 03:07:23;;;;;;;9.00;3.42;;;27.90;94.40;;;;;;4959946;29;20039;-46
2022/10/31 03:10:03;;;;;;;9.57;3.83;;;27.90;94.40;;;;;;4967317;29;20363;-43
2022/10/31 03:12:50;;;;;;;7.43;4.20;;;28.00;94.40;;;;;;4956944;29;20215;-43
2022/10/31 03:15:33;;;;;;;9.10;4.10;;;27.90;94.40;;;;;;4951499;29;20027;-47
2022/10/31 03:18:13;;;;;;;6.43;3.70;;;27.90;94.40;;;;;;4948417;29;20039;-44
2022/10/31 03:20:56;;;;;;;8.48;4.07;;;27.90;94.40;;;;;;4948875;29;20028;-47
2022/10/31 03:23:24;;;;;;;7.95;4.40;;;27.90;94.50;;;;;;4947832;29;20258;-42
2022/10/31 03:25:53;;;;;;;9.10;4.80;;;27.90;94.50;;;;;;4948559;29;20035;-51
2022/10/31 03:28:31;;;;;;;11.57;6.80;;;27.90;94.60;;;;;;4948497;29;20051;-42
2022/10/31 03:31:00;;;;;;;11.52;9.35;;;27.90;94.60;;;;;;4939027;29;20028;-43
2022/10/31 03:33:31;;;;;;;11.65;9.00;;;27.90;94.70;;;;;;4929214;29;20088;-45
2022/10/31 03:36:01;;;;;;;10.63;9.40;;;27.90;94.70;;;;;;4929509;29;20095;-47
2022/10/31 03:38:29;;;;;;;12.20;9.13;;;27.90;94.70;;;;;;4929349;29;20324;-43
2022/10/31 03:40:59;;;;;;;11.13;7.30;;;27.80;94.60;;;;;;4929321;29;20059;-42
2022/10/31 03:43:30;;;;;;;13.27;7.40;;;27.90;94.60;;;;;;4929165;29;20035;-42
2022/10/31 03:45:58;;;;;;;10.05;7.20;;;27.80;94.60;;;;;;4939066;29;20035;-42
2022/10/31 03:48:25;;;;;;;14.20;6.22;;;27.80;94.70;;;;;;4947730;29;20071;-43
2022/10/31 03:50:59;;;;;;;8.43;5.30;;;27.80;94.70;;;;;;4962985;29;20035;-44
2022/10/31 03:53:39;;;;;;;7.38;5.18;;;27.80;94.80;;;;;;4967130;29;20404;-45
2022/10/31 03:56:48;;;;;;;8.25;4.70;;;27.80;94.80;;;;;;4967534;29;20035;-47
2022/10/31 03:59:21;;;;;;;8.93;4.40;;;27.80;94.80;;;;;;4899906;29;20298;-42
2022/10/31 04:01:53;;;;;;;10.82;4.25;;;27.80;94.80;;;;;;4958279;29;20024;-45
2022/10/31 04:04:20;;;;;;;10.52;4.00;;;27.80;94.80;;;;;;4947640;29;20038;-46
2022/10/31 04:06:49;;;;;;;7.75;3.70;;;27.80;94.70;;;;;;4947842;29;20028;-42
2022/10/31 04:09:18;;;;;;;6.57;3.78;;;27.80;94.70;;;;;;4947717;29;20366;-44
2022/10/31 04:11:50;;;;;;;6.72;3.80;;;27.80;94.70;;;;;;4947551;29;20054;-43
2022/10/31 04:14:16;;;;;;;6.13;3.70;;;27.80;94.80;;;;;;4947569;29;20023;-49
2022/10/31 04:16:44;;;;;;;7.78;3.63;;;27.80;94.80;;;;;;4947900;29;20303;-51
2022/10/31 04:19:14;;;;;;;6.78;3.42;;;27.80;94.70;;;;;;4947576;29;20032;-42
2022/10/31 04:21:43;;;;;;;7.88;3.78;;;27.80;94.70;;;;;;4947982;29;20031;-44
2022/10/31 04:24:10;;;;;;;12.10;4.00;;;27.80;94.70;;;;;;4947273;29;20035;-43
2022/10/31 04:26:37;;;;;;;10.13;3.63;;;27.80;94.80;;;;;;4947800;29;20030;-43
2022/10/31 04:29:03;;;;;;;9.55;3.72;;;27.80;94.70;;;;;;4947434;29;20205;-43
2022/10/31 04:31:30;;;;;;;6.50;3.58;;;27.80;94.60;;;;;;4947649;29;20295;-47
2022/10/31 04:33:56;;;;;;;9.00;3.80;;;27.80;94.60;;;;;;4946799;29;20080;-45
2022/10/31 04:36:23;;;;;;;5.95;3.15;;;27.80;94.60;;;;;;4952337;29;20077;-44
2022/10/31 04:38:49;;;;;;;8.70;3.35;;;27.80;94.60;;;;;;4955188;29;20343;-42
2022/10/31 04:41:16;;;;;;;9.38;3.50;;;27.80;94.60;;;;;;4965408;29;20047;-41
2022/10/31 04:43:42;;;;;;;7.30;3.22;;;27.80;94.60;;;;;;4966233;29;20041;-41
2022/10/31 04:46:09;;;;;;;6.00;3.10;;;27.80;94.60;;;;;;4966609;29;20035;-44
2022/10/31 04:48:35;;;;;;;6.85;3.05;;;27.80;94.60;;;;;;4966265;29;20063;-43
2022/10/31 04:51:02;;;;;;;7.65;3.00;;;27.80;94.70;;;;;;4966714;29;20192;-44
2022/10/31 04:53:29;;;;;;;5.85;2.80;;;27.80;94.70;;;;;;4966171;29;20043;-41
2022/10/31 04:56:01;;;;;;;7.82;2.80;;;27.80;94.70;;;;;;4963055;28;20031;-43
2022/10/31 04:58:28;;;;;;;;;;;27.80;94.70;;;;;;4957914;29;20037;-42
2022/10/31 05:00:55;;;;;;;7.40;3.03;;;27.80;94.60;;;;;;4965919;29;19906;-46
2022/10/31 05:03:22;;;;;;;6.65;2.53;;;27.70;94.60;;;;;;4965991;29;20331;-41
2022/10/31 05:05:49;;;;;;;8.85;2.85;;;27.70;94.60;;;;;;4966203;29;20086;-43
2022/10/31 05:08:15;;;;;;;7.05;2.33;;;27.70;94.70;;;;;;4965941;29;20034;-41
2022/10/31 05:10:42;;;;;;;6.68;2.38;;;27.80;94.70;;;;;;4965676;29;20078;-41
2022/10/31 05:13:09;;;;;;;7.93;2.78;;;27.70;94.70;;;;;;4965772;29;20128;-41
2022/10/31 05:15:35;;;;;;;7.22;2.30;;;27.70;94.70;;;;;;4956567;29;20207;-43
2022/10/31 05:18:02;;;;;;;5.20;2.42;;;27.70;94.70;;;;;;4953671;29;20027;-42
2022/10/31 05:20:30;;;;;;;8.63;2.67;;;27.70;94.60;;;;;;4964651;29;20034;-41
2022/10/31 05:22:58;;;;;;;6.07;2.80;;;27.70;94.70;;;;;;4965856;29;20067;-42
2022/10/31 05:25:26;;;;;;;5.95;2.28;;;27.70;94.60;;;;;;4962200;29;20023;-44
2022/10/31 05:27:54;;;;;;;11.95;2.40;;;27.70;94.60;;;;;;4955242;29;20031;-42
2022/10/31 05:30:27;;;;;;;5.95;2.53;;;27.70;94.60;;;;;;4946516;29;20261;-47
2022/10/31 05:32:53;;;;;;;6.60;2.10;;;27.70;94.60;;;;;;4946394;29;20036;-51
2022/10/31 05:35:31;;;;;;;9.77;2.58;;;27.70;94.60;;;;;;4946575;29;20032;-41
2022/10/31 05:37:58;;;;;;;4.65;2.22;;;27.70;94.60;;;;;;4946194;29;20035;-43
2022/10/31 05:40:26;;;;;;;7.93;2.70;;;27.70;94.60;;;;;;4946506;29;20098;-44
2022/10/31 05:42:54;;;;;;;5.05;2.42;;;27.70;94.60;;;;;;4946327;29;20042;-42
2022/10/31 05:45:22;;;;;;;5.43;2.50;;;27.70;94.50;;;;;;4946121;29;20023;-48
2022/10/31 05:47:59;;;;;;;5.38;2.22;;;27.70;94.50;;;;;;4950182;29;20032;-42
2022/10/31 05:50:28;;;;;;;7.57;2.40;;;27.70;94.50;;;;;;4950358;29;20047;-40
2022/10/31 05:52:57;;;;;;;5.55;2.40;;;27.70;94.50;;;;;;4951089;29;20189;-45
2022/10/31 05:55:25;;;;;;;4.13;2.17;;;27.70;94.50;;;;;;4946351;28;20295;-44
2022/10/31 05:57:53;;;;;;;6.05;2.50;;;27.60;94.50;;;;;;4958299;29;20418;-42
2022/10/31 06:00:20;;;;;;;5.78;2.67;;;27.60;94.50;;;;;;4958680;29;20043;-42
2022/10/31 06:02:47;;;;;;;11.13;2.80;;;27.60;94.50;;;;;;4956045;29;20042;-45
2022/10/31 06:05:14;;;;;;;10.40;2.75;;;27.60;94.50;;;;;;4956754;29;20087;-42
2022/10/31 06:07:40;;;;;;;18.42;2.58;;;27.60;94.50;;;;;;4951404;29;20031;-48
2022/10/31 06:10:08;;;;;;;59.58;5.15;;;27.60;94.50;;;;;;4956804;29;20070;-43
2022/10/31 06:12:40;;;;;;;11.43;2.63;;;27.60;94.50;;;;;;4958501;29;20238;-43
2022/10/31 06:15:08;;;;;;;8.10;2.40;;;27.60;94.50;;;;;;4966828;29;20045;-47
2022/10/31 06:17:36;;;;;;;11.57;2.47;;;27.60;94.40;;;;;;4968938;29;20353;-44
2022/10/31 06:20:03;;;;;;;5.75;2.40;;;27.60;94.40;;;;;;4969115;29;20091;-42
2022/10/31 06:22:30;;;;;;;6.70;2.60;;;27.60;94.40;;;;;;4968861;29;20047;-50
2022/10/31 06:24:56;;;;;;;7.22;2.60;;;27.60;94.40;;;;;;4966992;29;20360;-42
2022/10/31 06:27:23;;;;;;;4.57;2.70;;;27.50;94.40;;;;;;4959940;29;20035;-42
2022/10/31 06:29:50;;;;;;;5.10;2.28;;;27.60;94.40;;;;;;4949608;29;20212;-45
2022/10/31 06:32:17;;;;;;;6.85;2.58;;;27.60;94.40;;;;;;4949450;29;20032;-43
2022/10/31 06:34:47;;;;;;;5.53;2.75;;;27.50;94.30;;;;;;4949410;29;20103;-43
2022/10/31 06:37:15;;;;;;;48.58;4.72;;;27.50;94.30;;;;;;4949499;29;20088;-43
2022/10/31 06:39:41;;;;;;;9.40;2.88;;;27.50;94.40;;;;;;4949891;29;20351;-43
2022/10/31 06:42:08;;;;;;;27.08;3.47;;;27.50;94.40;;;;;;4956649;29;20038;-46
2022/10/31 06:44:34;;;;;;;12.27;2.95;;;27.50;94.30;;;;;;4951624;29;20027;-43
2022/10/31 06:47:01;;;;;;;11.55;3.67;;;27.50;94.30;;;;;;4960955;29;20046;-46
2022/10/31 06:49:27;;;;;;;8.13;3.15;;;27.50;94.30;;;;;;4950315;29;20235;-48
2022/10/31 06:51:54;;;;;;;5.10;2.75;;;27.50;94.30;;;;;;4949260;29;20031;-46
2022/10/31 06:54:21;;;;;;;7.15;2.72;;;27.50;94.30;;;;;;4948900;29;20058;-46
2022/10/31 06:56:48;;;;;;;5.20;2.90;;;27.50;94.40;;;;;;4942184;29;20087;-43
2022/10/31 06:59:15;;;;;;;4.45;2.63;;;27.50;94.40;;;;;;4929469;29;20024;-43
2022/10/31 07:01:42;;;;;;;7.13;2.70;;;27.40;94.40;;;;;;4930460;29;20032;-50
2022/10/31 07:04:10;;;;;;;7.25;3.25;;;27.50;94.40;;;;;;4929832;29;20047;-43
2022/10/31 07:06:37;;;;;;;6.68;3.05;;;27.40;94.40;;;;;;4930399;29;20059;-42
2022/10/31 07:09:03;;;;;;;5.88;2.97;;;27.40;94.40;;;;;;4929866;29;20066;-46
2022/10/31 07:11:30;;;;;;;5.72;2.80;;;27.50;94.40;;;;;;4930117;29;20301;-44
2022/10/31 07:13:57;;;;;;;5.30;2.70;;;27.40;94.40;;;;;;4929880;29;20067;-44
2022/10/31 07:16:23;;;;;;;7.95;2.97;;;27.40;94.50;;;;;;4930046;29;20032;-43
2022/10/31 07:18:50;;;;;;;6.05;3.08;;;27.40;94.50;;;;;;4929690;29;20031;-43
2022/10/31 07:21:16;;;;;;;5.82;3.00;;;27.40;94.50;;;;;;4929997;29;20035;-42
2022/10/31 07:23:43;;;;;;;4.35;2.88;;;27.40;94.50;;;;;;4929559;29;20231;-43
2022/10/31 07:26:10;;;;;;;5.78;2.47;;;27.40;94.50;;;;;;4929560;29;20312;-46
2022/10/31 07:28:36;;;;;;;7.60;2.80;;;27.40;94.50;;;;;;4929583;29;20076;-44
2022/10/31 07:31:03;;;;;;;6.20;2.40;;;27.40;94.50;;;;;;4929466;29;20324;-44
2022/10/31 07:33:29;;;;;;;5.38;2.60;;;27.40;94.50;;;;;;4929423;29;20098;-51
2022/10/31 07:35:56;;;;;;;3.75;2.53;;;27.40;94.60;;;;;;4929654;29;20070;-44
2022/10/31 07:38:22;;;;;;;5.88;2.97;;;27.40;94.60;;;;;;4929387;29;20036;-46
2022/10/31 07:40:52;;;;;;;6.15;3.10;;;27.40;94.60;;;;;;4929593;29;20020;-44
2022/10/31 07:43:20;;;;;;;5.22;3.10;;;27.40;94.70;;;;;;4929301;29;20080;-46
2022/10/31 07:45:53;;;;;;;7.85;3.20;;;27.40;94.70;;;;;;4929662;29;20299;-43
2022/10/31 07:48:20;;;;;;;7.10;3.10;;;27.40;94.70;;;;;;4928932;29;20111;-44
2022/10/31 07:50:47;;;;;;;6.57;2.80;;;27.30;94.70;;;;;;4929446;29;20332;-45
2022/10/31 07:53:15;;;;;;;7.35;2.88;;;27.30;94.70;;;;;;4928943;29;20232;-51
2022/10/31 07:55:42;;;;;;;4.70;2.55;;;27.30;94.70;;;;;;4929055;29;20035;-43
2022/10/31 07:58:11;;;;;;;6.45;3.00;;;27.30;94.80;;;;;;4928488;29;20203;-43
2022/10/31 08:00:39;;;;;;;4.47;2.83;;;27.30;94.80;;;;;;4929226;29;20028;-44
2022/10/31 08:03:11;;;;;;;6.95;3.05;;;27.30;94.80;;;;;;4928688;29;20269;-43
2022/10/31 08:05:39;;;;;;;6.32;3.42;;;27.30;94.70;;;;;;4929165;29;20035;-51
2022/10/31 08:08:05;;;;;;;5.50;3.00;;;27.30;94.80;;;;;;4928690;29;20031;-43
2022/10/31 08:10:33;;;;;;;7.90;3.13;;;27.30;94.80;;;;;;4928252;29;20316;-44
2022/10/31 08:13:03;;;;;;;6.55;2.63;;;27.30;94.80;;;;;;4928706;29;20095;-44
2022/10/31 08:15:30;;;;;;;5.68;3.03;;;27.30;94.80;;;;;;4928764;29;20024;-46
2022/10/31 08:17:57;;;;;;;4.82;3.05;;;27.30;94.80;;;;;;4928674;29;20040;-44
2022/10/31 08:20:23;;;;;;;9.60;3.63;;;27.30;94.80;;;;;;4928772;29;20024;-44
2022/10/31 08:23:00;;;;;;;10.25;3.80;;;27.30;94.80;;;;;;4928498;29;20085;-43
2022/10/31 08:25:29;;;;;;;8.40;3.67;;;27.30;94.90;;;;;;4928602;29;20063;-48
2022/10/31 08:27:56;;;;;;;8.57;3.85;;;27.30;94.90;;;;;;4926953;29;20040;-50
2022/10/31 08:30:25;;;;;;;8.82;3.55;;;27.30;95.00;;;;;;4926930;29;20095;-51
2022/10/31 08:33:10;;;;;;;10.40;3.75;;;27.30;95.00;;;;;;4928151;29;20093;-47
2022/10/31 08:35:37;;;;;;;7.45;3.85;;;27.30;95.10;;;;;;4928464;29;20174;-46
2022/10/31 08:38:04;;;;;;;10.80;3.75;;;27.30;95.10;;;;;;4928287;29;20028;-41
2022/10/31 08:40:32;;;;;;;12.57;3.60;;;27.30;95.10;;;;;;4928375;29;20024;-41
2022/10/31 08:42:59;;;;;;;5.35;3.17;;;27.30;94.90;;;;;;4928263;29;20328;-42
2022/10/31 08:45:26;;;;;;;4.60;2.70;;;27.30;94.90;;;;;;4928291;29;20028;-45
2022/10/31 08:47:56;;;;;;;6.07;2.60;;;27.30;94.80;;;;;;4928103;29;20042;-45
2022/10/31 08:50:23;;;;;;;6.80;2.60;;;27.20;94.70;;;;;;4946526;29;20043;-46
2022/10/31 08:52:49;;;;;;;5.90;2.40;;;27.30;94.70;;;;;;4947005;29;20388;-42
2022/10/31 08:55:16;;;;;;;5.70;2.65;;;27.30;94.80;;;;;;4947104;29;20035;-44
2022/10/31 08:57:42;;;;;;;6.15;2.22;;;27.20;94.70;;;;;;4946893;29;20042;-45
2022/10/31 09:00:09;;;;;;;6.63;2.75;;;27.20;94.70;;;;;;4946980;29;20035;-49
2022/10/31 09:02:38;;;;;;;7.57;2.30;;;27.20;94.70;;;;;;4946807;29;20342;-48
2022/10/31 09:05:05;;;;;;;4.95;2.10;;;27.20;94.70;;;;;;4946815;29;20046;-53
2022/10/31 09:07:31;;;;;;;7.68;2.40;;;27.20;94.70;;;;;;4946792;29;20071;-43
2022/10/31 09:09:58;;;;;;;7.63;2.35;;;27.20;94.70;;;;;;4946848;29;20039;-42
2022/10/31 09:12:24;;;;;;;10.25;3.20;;;27.20;94.70;;;;;;4946572;29;20036;-43
2022/10/31 09:14:51;;;;;;;5.78;2.45;;;27.20;94.70;;;;;;4946526;29;20027;-43
2022/10/31 09:17:18;;;;;;;6.70;2.58;;;27.20;94.70;;;;;;4946795;29;20034;-43
2022/10/31 09:19:44;;;;;;;6.15;2.38;;;27.20;94.70;;;;;;4946641;29;20208;-44
2022/10/31 09:22:11;;;;;;;5.13;2.33;;;27.20;94.80;;;;;;4946019;29;20027;-48
2022/10/31 09:24:37;;;;;;;6.60;2.72;;;27.20;94.80;;;;;;4946487;29;20062;-43
2022/10/31 09:27:04;;;;;;;9.63;2.70;;;27.20;94.80;;;;;;4946763;29;20326;-45
2022/10/31 09:29:30;;;;;;;4.25;2.85;;;27.20;94.80;;;;;;4946247;29;20051;-48
2022/10/31 09:31:57;;;;;;;6.82;2.80;;;27.20;94.90;;;;;;4946538;29;20039;-47
2022/10/31 09:34:23;;;;;;;8.38;2.65;;;27.20;94.90;;;;;;4946431;29;20196;-50
2022/10/31 09:36:50;;;;;;;6.20;2.40;;;27.20;94.90;;;;;;4946377;29;20051;-49
2022/10/31 09:39:16;;;;;;;6.57;2.30;;;27.10;94.90;;;;;;4946387;29;20047;-48
2022/10/31 09:41:52;;;;;;;5.70;2.40;;;27.10;94.80;;;;;;4947242;29;20031;-53
2022/10/31 09:44:34;;;;;;;7.00;2.60;;;27.10;94.80;;;;;;4946309;29;20058;-44
2022/10/31 09:47:09;;;;;;;4.45;2.60;;;27.10;94.70;;;;;;4946423;29;20044;-44
2022/10/31 09:49:51;;;;;;;4.63;2.25;;;27.10;94.70;;;;;;4946180;29;20055;-49
2022/10/31 09:52:28;;;;;;;8.23;2.50;;;27.10;94.70;;;;;;4946165;29;20358;-47
2022/10/31 09:55:26;;;;;;;7.03;2.30;;;27.10;94.70;;;;;;4946501;29;20062;-43
2022/10/31 09:57:53;;;;;;;8.18;2.50;;;27.00;94.60;;;;;;4924418;29;20067;-44
2022/10/31 10:00:22;;;;;;;6.80;2.40;;;27.00;94.60;;;;;;4946457;29;20083;-48
2022/10/31 10:03:01;;;;;;;5.90;2.40;;;27.00;94.60;;;;;;4946383;29;20058;-48
2022/10/31 10:05:32;;;;;;;7.15;3.28;;;27.00;94.60;;;;;;4946313;29;20035;-44
2022/10/31 10:08:02;;;;;;;8.63;3.72;;;27.00;94.60;;;;;;4946290;29;20027;-51
2022/10/31 10:11:08;;;;;;;8.00;4.55;;;27.00;94.60;;;;;;4946145;29;20223;-44
2022/10/31 10:13:46;;;;;;;8.13;4.75;;;27.00;94.70;;;;;;4945823;29;20019;-49
2022/10/31 10:16:33;;;;;;;6.45;4.18;;;27.00;94.70;;;;;;4946416;29;20095;-43
2022/10/31 10:19:20;;;;;;;8.13;3.65;;;27.00;94.80;;;;;;4945879;29;20027;-47
2022/10/31 10:21:56;;;;;;;7.15;3.47;;;27.00;94.70;;;;;;4945971;29;20035;-44
2022/10/31 10:24:28;;;;;;;6.53;3.13;;;26.90;94.60;;;;;;4946097;29;20039;-44
2022/10/31 10:27:23;;;;;;;5.28;3.35;;;26.90;94.60;;;;;;4945894;29;20046;-45
2022/10/31 10:30:22;;;;;;;8.80;3.25;;;26.90;94.60;;;;;;4928033;29;20028;-43
2022/10/31 10:33:19;;;;;;;6.32;3.33;;;26.90;94.60;;;;;;4948455;29;20263;-45
2022/10/31 10:36:03;;;;;;;9.23;3.10;;;26.90;94.50;;;;;;4949242;29;20028;-44
2022/10/31 10:38:33;;;;;;;4.35;2.60;;;26.90;94.60;;;;;;4949669;29;20046;-44
2022/10/31 10:41:03;;;;;;;8.45;2.90;;;26.90;94.60;;;;;;4948938;29;20140;-43
2022/10/31 10:43:35;;;;;;;7.32;2.83;;;26.90;94.60;;;;;;4950034;29;20062;-43
2022/10/31 10:49:31;;;;;;;8.75;3.70;;;26.90;94.50;;;;;;4931469;29;20100;-50
2022/10/31 10:52:10;;;;;;;7.68;3.60;;;26.90;94.50;;;;;;4948835;29;20131;-47
2022/10/31 10:54:55;;;;;;;8.27;3.95;;;26.90;94.60;;;;;;4943337;29;20042;-46
2022/10/31 10:58:03;;;;;;;7.00;3.60;;;26.90;94.60;;;;;;4940636;29;20083;-44
2022/10/31 11:00:36;;;;;;;7.30;3.17;;;26.90;94.60;;;;;;4912771;29;20055;-46
2022/10/31 11:03:04;;;;;;;6.85;3.42;;;26.90;94.60;;;;;;4939453;29;20203;-44
2022/10/31 11:05:39;;;;;;;7.93;3.50;;;26.90;94.70;;;;;;4939478;29;20241;-49
2022/10/31 11:08:07;;;;;;;9.32;3.70;;;26.90;94.80;;;;;;4937142;29;20019;-43
2022/10/31 11:10:35;;;;;;;37.53;6.22;;;26.90;94.70;;;;;;4939362;29;20031;-42
2022/10/31 11:13:23;;;;;;;24.50;4.68;;;26.90;94.70;;;;;;4937827;29;20305;-45
2022/10/31 11:16:09;;;;;;;12.80;3.83;;;26.90;94.80;;;;;;4946662;29;20241;-53
2022/10/31 11:18:45;;;;;;;14.95;4.35;;;26.90;94.60;;;;;;4948689;29;20235;-45
2022/10/31 11:21:25;;;;;;;16.92;3.70;;;26.90;94.60;;;;;;4949840;29;20231;-45
2022/10/31 11:24:11;;;;;;;8.38;3.40;;;26.90;94.60;;;;;;4949478;29;20046;-45
2022/10/31 11:26:40;;;;;;;7.22;3.15;;;26.90;94.60;;;;;;4949276;29;20027;-46
2022/10/31 11:29:24;;;;;;;6.55;3.15;;;27.00;94.50;;;;;;4948989;29;20027;-44
2022/10/31 11:31:55;;;;;;;6.50;2.60;;;27.20;94.20;;;;;;4949150;29;20040;-45
2022/10/31 11:34:35;;;;;;;9.55;2.88;;;27.00;94.10;;;;;;4949008;29;20338;-49
2022/10/31 11:37:26;;;;;;;4.45;2.65;;;27.00;94.20;;;;;;4948993;29;20040;-48
2022/10/31 11:40:02;;;;;;;9.40;2.92;;;27.00;94.20;;;;;;4942256;29;20032;-44
2022/10/31 11:42:35;;;;;;;7.82;2.92;;;27.00;94.20;;;;;;4949166;29;20316;-44
2022/10/31 11:45:07;;;;;;;5.45;2.53;;;27.00;94.30;;;;;;4948604;29;20061;-44
2022/10/31 11:47:36;;;;;;;6.03;2.38;;;27.00;94.30;;;;;;4948922;29;20036;-44
2022/10/31 11:50:12;;;;;;;3.72;2.15;;;27.00;94.30;;;;;;4948250;29;20051;-47
2022/10/31 11:52:40;;;;;;;8.35;2.50;;;27.00;94.40;;;;;;4948722;29;20280;-45
2022/10/31 11:55:13;;;;;;;6.63;2.10;;;27.00;94.40;;;;;;4948494;29;20027;-44
2022/10/31 11:57:51;;;;;;;4.93;2.03;;;27.00;94.30;;;;;;4948654;29;20040;-44
2022/10/31 12:00:33;;;;;;;5.07;1.88;;;27.00;94.40;;;;;;4948743;29;20024;-45
2022/10/31 12:03:24;;;;;;;6.20;1.73;;;27.00;94.20;;;;;;4948713;29;20280;-45
2022/10/31 12:06:14;;;;;;;4.15;1.88;;;27.00;94.20;;;;;;4948883;29;20141;-48
2022/10/31 12:08:42;;;;;;;2.88;1.90;;;27.00;94.20;;;;;;4948492;29;20032;-48
2022/10/31 12:11:30;;;;;;;3.63;1.80;;;27.10;94.30;;;;;;4948395;29;20020;-48
2022/10/31 12:14:21;;;;;;;4.25;1.67;;;27.10;94.20;;;;;;4948568;29;20028;-45
2022/10/31 12:16:57;;;;;;;6.53;1.98;;;27.10;94.30;;;;;;4948448;29;20028;-44
2022/10/31 12:19:52;;;;;;;3.35;1.77;;;27.10;94.40;;;;;;4948694;29;20094;-44
2022/10/31 12:22:35;;;;;;;4.03;1.90;;;27.10;94.40;;;;;;4896908;29;20033;-49
2022/10/31 12:25:16;;;;;;;;;;;27.10;94.40;;;;;;4948825;29;20036;-49
2022/10/31 12:27:59;;;;;;;3.15;1.83;;;27.10;94.50;;;;;;4948066;29;19942;-48
2022/10/31 12:30:41;;;;;;;4.40;1.70;;;27.20;94.50;;;;;;4947910;29;20382;-43
2022/10/31 12:33:38;;;;;;;4.82;2.08;;;27.10;94.40;;;;;;4947680;29;20034;-44
2022/10/31 12:36:53;;;;;;;4.10;2.45;;;27.20;94.60;;;;;;4948557;29;20035;-45
2022/10/31 12:39:41;;;;;;;6.78;3.90;;;27.20;94.60;;;;;;4935592;29;20035;-49
2022/10/31 12:42:35;;;;;;;5.70;3.38;;;27.20;94.40;;;;;;4947729;29;20059;-46
2022/10/31 12:45:55;;;;;;;5.82;3.17;;;27.20;94.40;;;;;;4926201;29;20287;-48
2022/10/31 12:48:35;;;;;;;6.18;3.10;;;27.20;94.80;;;;;;4889250;29;20373;-50
2022/10/31 12:51:40;;;;;;;3.90;3.20;;;27.20;94.50;;;;;;4941493;29;20031;-45
2022/10/31 12:54:45;;;;;;;3.25;2.30;;;27.30;94.50;;;;;;4930898;29;20055;-48
2022/10/31 12:57:18;;;;;;;4.13;2.75;;;27.30;94.50;;;;;;4947337;29;20027;-50
2022/10/31 13:00:12;;;;;;;3.97;2.50;;;27.30;94.50;;;;;;4947962;29;20028;-46
2022/10/31 13:02:49;;;;;;;3.70;2.42;;;27.30;94.50;;;;;;4947935;29;20031;-49
2022/10/31 13:05:25;;;;;;;3.60;2.40;;;27.30;94.40;;;;;;4947715;29;20098;-46
2022/10/31 13:08:03;;;;;;;6.20;2.33;;;27.30;94.60;;;;;;4940824;29;20020;-46
2022/10/31 13:10:36;;;;;;;4.55;2.45;;;27.30;94.50;;;;;;4947756;29;20023;-48
2022/10/31 13:13:18;;;;;;;4.50;2.33;;;27.40;94.50;;;;;;4947449;29;20046;-48
2022/10/31 13:16:00;;;;;;;3.20;2.30;;;27.30;94.50;;;;;;4947845;29;20030;-45
2022/10/31 13:18:39;;;;;;;4.18;2.00;;;27.40;94.80;;;;;;4947510;29;20031;-43